Saturday, September 22, 2018, 10:36 PM EDT
Back to Local

KMPV, Knapp State Airport

Location: Barre, VT, United States Lat: 44.2
Local Time: 10:36 PM EDT ( 2:36 GMT) Lon: -72.567
Time Zone: US/Eastern Elev: 1164 ft

Show me the last for .
Show Decoded

2018-09-22 21:51 METAR KMPV 230151Z AUTO 00000KT 10SM CLR 05/05 A3028 RMK AO2 SLP262 T00500050 =
2018-09-22 20:51 METAR KMPV 230051Z AUTO 00000KT 10SM CLR 07/06 A3027 RMK AO2 SLP259 T00670056 =
2018-09-22 19:51 METAR KMPV 222351Z AUTO 00000KT 10SM CLR 08/05 A3026 RMK AO2 SLP252 T00830050
                 10139 20083 53013 =
2018-09-22 18:51 METAR KMPV 222251Z AUTO 30005KT 10SM CLR 10/05 A3024 RMK AO2 SLP246 T01000050 =
2018-09-22 17:51 METAR KMPV 222151Z AUTO 28004KT 10SM CLR 12/04 A3023 RMK AO2 SLP242 T01170044 =
2018-09-22 16:51 METAR KMPV 222051Z AUTO 33008KT 10SM CLR 13/04 A3022 RMK AO2 SLP235 T01330039
                 55002 =
2018-09-22 15:51 METAR KMPV 221951Z AUTO 31011KT 10SM CLR 13/04 A3022 RMK AO2 SLP232 T01330044 =
2018-09-22 14:51 METAR KMPV 221851Z AUTO 30010G16KT 10SM CLR 13/04 A3022 RMK AO2 SLP232 T01330044
                 =
2018-09-22 13:51 METAR KMPV 221751Z AUTO 31007G17KT 10SM CLR 13/04 A3023 RMK AO2 SLP236 T01330044
                 10139 20100 52005 =
2018-09-22 12:51 METAR KMPV 221651Z AUTO 32009G17KT 290V360 10SM CLR 13/05 A3022 RMK AO2 SLP234
                 T01330050 =
2018-09-22 11:51 METAR KMPV 221551Z AUTO 33012KT 10SM CLR 13/04 A3022 RMK AO2 SLP233 T01280044 =
2018-09-22 10:51 METAR KMPV 221451Z AUTO 33012G22KT 280V350 10SM CLR 12/05 A3021 RMK AO2 SLP232
                 T01170050 51039 =
2018-09-22 09:51 METAR KMPV 221351Z AUTO 31017G25KT 10SM SCT030 11/06 A3017 RMK AO2 PK WND
                 31026/1340 SLP219 T01110056 =
2018-09-22 09:31 METAR KMPV 221331Z AUTO 33016G25KT 10SM OVC030 12/06 A3016 RMK AO2 T01170056 =
2018-09-22 09:19 METAR KMPV 221319Z AUTO 33012G20KT 10SM BKN029 12/06 A3016 RMK AO2 T01170061 =
2018-09-22 08:51 METAR KMPV 221251Z AUTO 33016G23KT 10SM FEW029 FEW034 11/06 A3014 RMK AO2 PK WND
                 30027/1202 SLP209 T01110056 =
2018-09-22 08:35 METAR KMPV 221235Z AUTO 32018G25KT 10SM SCT029 BKN036 11/06 A3013 RMK AO2 PK WND
                 30027/1202 T01110061 =
2018-09-22 08:28 METAR KMPV 221228Z AUTO 32016G25KT 10SM BKN029 BKN036 11/07 A3014 RMK AO2 PK WND
                 30027/1202 PRESRR T01110067 =
2018-09-22 07:51 METAR KMPV 221151Z AUTO 32017G25KT 10SM OVC034 12/07 A3009 RMK AO2 SLP191 60000
                 70018 T01220072 10206 20122 51056 =
2018-09-22 06:51 METAR KMPV 221051Z AUTO 34014G27KT 10SM BKN040 BKN046 OVC060 13/07 A3006 RMK AO2
                 PK WND 30031/0953 SLP179 T01280072 =
2018-09-22 05:51 METAR KMPV 220951Z AUTO 31017G29KT 10SM OVC042 14/07 A2999 RMK AO2 PK WND
                 31032/0913 SLP155 T01390067 =
2018-09-22 04:51 METAR KMPV 220851Z AUTO 29009KT 10SM FEW037 SCT045 OVC060 17/11 A2992 RMK AO2 PK
                 WND 30026/0756 SLP132 60000 T01670106 53041 =
2018-09-22 03:51 METAR KMPV 220751Z AUTO 30015G27KT 10SM FEW070 18/11 A2986 RMK AO2 PK WND
                 28027/0748 RAE06 SLP111 P0000 T01830106 =
2018-09-22 02:51 METAR KMPV 220651Z AUTO 27018G27KT 9SM -RA FEW030 SCT048 BKN065 20/17 A2982 RMK
                 AO2 PK WND 26027/0650 RAB42 PRESRR SLP096 P0000 T02000167 =
2018-09-22 01:51 METAR KMPV 220551Z AUTO 22011G18KT 10SM FEW021 SCT038 BKN065 21/18 A2980 RMK AO2
                 SLP089 60009 T02060178 10211 20172 55003 =
2018-09-22 00:51 METAR KMPV 220451Z AUTO 22014G23KT 10SM FEW018 SCT036 OVC046 21/18 A2979 RMK AO2
                 PK WND 21026/0353 RAB13E49 SLP086 P0008 T02060183 402110133 =
2018-09-21 23:51 METAR KMPV 220351Z AUTO 21015G24KT 10SM BKN030 OVC035 21/18 A2979 RMK AO2
                 RAB0258E07 SLP086 P0000 T02060183 =
2018-09-21 22:51 METAR KMPV 220251Z AUTO 19011KT 10SM SCT031 BKN085 OVC100 18/17 A2981 RMK AO2
                 RAB06E50 SLP093 P0001 60001 T01780172 55015 =

Support USWX by starting your Amazon purchase here.